createdAt,value
2018-08-12T00:00:18.487Z,56.04
2018-08-12T00:02:47.580Z,55.90
2018-08-12T00:05:16.559Z,56.12
2018-08-12T00:07:45.610Z,55.81
2018-08-12T00:10:14.563Z,56.27
2018-08-12T00:12:43.533Z,56.72
2018-08-12T00:15:14.643Z,56.66
2018-08-12T00:17:43.679Z,56.75
2018-08-12T00:20:15.679Z,56.43
2018-08-12T00:22:45.003Z,56.63
2018-08-12T00:25:15.617Z,56.55
2018-08-12T00:27:44.567Z,56.29
2018-08-12T00:30:15.427Z,56.00
2018-08-12T00:32:44.405Z,56.21
2018-08-12T00:35:16.312Z,56.55
2018-08-12T00:37:45.354Z,56.62
2018-08-12T00:40:15.510Z,56.95
2018-08-12T00:42:45.025Z,57.29
2018-08-12T00:45:18.102Z,57.49
2018-08-12T00:47:47.294Z,57.65
2018-08-12T00:50:16.998Z,57.74
2018-08-12T00:52:46.051Z,57.66
2018-08-12T00:55:16.344Z,58.25
2018-08-12T00:57:46.133Z,58.53
2018-08-12T01:00:20.504Z,57.99
2018-08-12T01:02:49.428Z,58.32
2018-08-12T01:05:19.162Z,58.17
2018-08-12T01:07:49.140Z,58.00
2018-08-12T01:10:18.782Z,58.68
2018-08-12T01:12:47.784Z,59.18
2018-08-12T01:15:18.494Z,58.17
2018-08-12T01:17:47.501Z,57.86
2018-08-12T01:20:20.194Z,57.85
2018-08-12T01:22:49.245Z,57.63
2018-08-12T01:25:18.356Z,57.64
2018-08-12T01:27:47.370Z,57.53
2018-08-12T01:30:19.108Z,57.27
2018-08-12T01:32:48.515Z,57.08
2018-08-12T01:35:17.749Z,58.02
2018-08-12T01:37:47.352Z,58.21
2018-08-12T01:40:17.192Z,57.96
2018-08-12T01:42:46.467Z,58.25
2018-08-12T01:45:17.024Z,57.76
2018-08-12T01:47:45.998Z,57.87
2018-08-12T01:50:16.316Z,57.72
2018-08-12T01:52:45.258Z,57.92
2018-08-12T01:55:14.381Z,57.41
2018-08-12T01:57:43.302Z,57.56
2018-08-12T02:00:15.395Z,57.97
2018-08-12T02:02:44.420Z,58.11
2018-08-12T02:05:21.037Z,58.04
2018-08-12T02:07:49.989Z,58.67
2018-08-12T02:10:18.971Z,58.92
2018-08-12T02:12:47.906Z,58.25
2018-08-12T02:15:16.811Z,58.50
2018-08-12T02:17:45.767Z,58.55
2018-08-12T02:20:14.755Z,58.70
2018-08-12T02:22:43.679Z,59.31
2018-08-12T02:25:13.082Z,58.73
2018-08-12T02:27:42.062Z,58.74
2018-08-12T02:30:12.385Z,59.30
2018-08-12T02:32:42.095Z,59.51
2018-08-12T02:35:11.213Z,59.76
2018-08-12T02:37:40.589Z,58.65
2018-08-12T02:40:10.684Z,58.71
2018-08-12T02:42:40.584Z,59.12
2018-08-12T02:45:13.131Z,58.85
2018-08-12T02:47:42.091Z,58.18
2018-08-12T02:50:11.058Z,58.41
2018-08-12T02:52:39.948Z,58.10
2018-08-12T02:55:10.164Z,58.87
2018-08-12T02:57:39.190Z,57.68
2018-08-12T03:00:09.336Z,58.13
2018-08-12T03:02:38.239Z,57.60
2018-08-12T03:05:07.251Z,57.70
2018-08-12T03:07:36.551Z,57.34
2018-08-12T03:10:05.910Z,57.21
2018-08-12T03:12:34.861Z,57.41
2018-08-12T03:15:03.822Z,57.89
2018-08-12T03:17:32.744Z,56.99
2018-08-12T03:20:01.749Z,58.05
2018-08-12T03:22:30.722Z,57.65
2018-08-12T03:24:59.610Z,58.03
2018-08-12T03:27:28.541Z,57.76
2018-08-12T03:29:57.495Z,57.91
2018-08-12T03:32:26.447Z,58.59
2018-08-12T03:34:55.378Z,58.32
2018-08-12T03:37:24.328Z,58.34
2018-08-12T03:39:53.267Z,57.90
2018-08-12T03:42:22.221Z,58.13
2018-08-12T03:44:51.153Z,58.49
2018-08-12T03:47:20.069Z,58.44
2018-08-12T03:49:49.028Z,58.34
2018-08-12T03:52:18.004Z,57.78
2018-08-12T03:54:46.963Z,57.57
2018-08-12T03:57:15.957Z,57.98
2018-08-12T03:59:44.940Z,57.40
2018-08-12T04:02:13.874Z,57.72
2018-08-12T04:04:42.803Z,57.48
2018-08-12T04:07:11.729Z,57.80
2018-08-12T04:09:40.639Z,57.47
2018-08-12T04:12:09.540Z,57.25
2018-08-12T04:14:38.472Z,57.54
2018-08-12T04:17:07.416Z,57.56
2018-08-12T04:19:36.408Z,57.57
2018-08-12T04:22:05.508Z,57.93
2018-08-12T04:24:34.456Z,58.31
2018-08-12T04:27:03.488Z,58.35
2018-08-12T04:29:32.453Z,58.49
2018-08-12T04:32:01.384Z,58.13
2018-08-12T04:34:30.297Z,59.01
2018-08-12T04:36:59.191Z,58.35
2018-08-12T04:39:28.110Z,59.39
2018-08-12T04:41:57.040Z,59.12
2018-08-12T04:44:25.983Z,59.34
2018-08-12T04:46:54.963Z,59.38
2018-08-12T04:49:23.859Z,58.78
2018-08-12T04:51:52.881Z,58.86
2018-08-12T04:54:21.817Z,58.91
2018-08-12T04:56:50.781Z,58.92
2018-08-12T04:59:19.791Z,58.15
2018-08-12T05:01:48.727Z,57.99
2018-08-12T05:04:17.689Z,57.28
2018-08-12T05:06:46.760Z,57.04
2018-08-12T05:09:15.788Z,56.88
2018-08-12T05:11:44.739Z,56.59
2018-08-12T05:14:13.669Z,56.74
2018-08-12T05:16:42.611Z,56.28
2018-08-12T05:19:11.591Z,55.95
2018-08-12T05:21:40.552Z,55.57
2018-08-12T05:24:09.482Z,55.54
2018-08-12T05:26:38.397Z,55.05
2018-08-12T05:29:07.358Z,54.88
2018-08-12T05:31:36.309Z,54.89
2018-08-12T05:34:05.318Z,55.05
2018-08-12T05:36:39.723Z,55.10
2018-08-12T05:39:14.877Z,55.41
2018-08-12T05:41:44.235Z,54.80
2018-08-12T05:44:14.238Z,54.89
2018-08-12T05:46:43.178Z,54.74
2018-08-12T05:49:12.092Z,54.84
2018-08-12T05:51:41.027Z,55.06
2018-08-12T05:54:15.421Z,55.51
2018-08-12T05:56:50.093Z,55.33
2018-08-12T05:59:19.017Z,55.87
2018-08-12T06:01:47.983Z,55.84
2018-08-12T06:04:16.920Z,55.83
2018-08-12T06:06:45.891Z,55.93
2018-08-12T06:09:14.815Z,56.60
2018-08-12T06:11:43.815Z,56.48
2018-08-12T06:14:12.810Z,55.94
2018-08-12T06:16:41.731Z,56.17
2018-08-12T06:19:10.657Z,56.00
2018-08-12T06:21:39.649Z,56.39
2018-08-12T06:24:08.598Z,55.97
2018-08-12T06:26:37.550Z,55.81
2018-08-12T06:29:06.638Z,55.38
2018-08-12T06:31:35.572Z,55.67
2018-08-12T06:34:04.484Z,55.66
2018-08-12T06:36:33.425Z,55.29
2018-08-12T06:39:02.440Z,55.34
2018-08-12T06:41:31.460Z,55.62
2018-08-12T06:44:00.452Z,55.49
2018-08-12T06:46:29.418Z,55.63
2018-08-12T06:48:58.730Z,55.69
2018-08-12T06:51:27.702Z,55.52
2018-08-12T06:53:56.640Z,54.93
2018-08-12T06:56:25.526Z,54.29
2018-08-12T06:58:54.456Z,54.45
2018-08-12T07:01:23.368Z,53.76
2018-08-12T07:03:52.798Z,54.50
2018-08-12T07:06:21.782Z,54.36
2018-08-12T07:08:50.740Z,54.06
2018-08-12T07:11:19.638Z,54.28
2018-08-12T07:13:48.618Z,54.44
2018-08-12T07:16:17.592Z,54.41
2018-08-12T07:18:46.638Z,54.41
2018-08-12T07:21:15.588Z,54.61
2018-08-12T07:23:44.540Z,54.25
2018-08-12T07:26:13.466Z,54.58
2018-08-12T07:28:43.848Z,54.46
2018-08-12T07:31:12.782Z,54.10
2018-08-12T07:33:41.791Z,54.26
2018-08-12T07:36:10.784Z,53.98
2018-08-12T07:38:45.360Z,54.07
2018-08-12T07:41:20.000Z,53.17
2018-08-12T07:43:48.900Z,53.25
2018-08-12T07:46:17.944Z,52.86
2018-08-12T07:48:47.182Z,52.71
2018-08-12T07:51:16.117Z,52.71
2018-08-12T07:53:45.208Z,52.17
2018-08-12T07:56:14.300Z,52.27
2018-08-12T07:58:43.227Z,51.15
2018-08-12T08:01:12.208Z,50.86
2018-08-12T08:03:41.190Z,49.74
2018-08-12T08:06:10.234Z,49.93
2018-08-12T08:08:39.212Z,49.89
2018-08-12T08:11:08.180Z,49.21
2018-08-12T08:13:37.133Z,49.44
2018-08-12T08:16:06.385Z,48.58
2018-08-12T08:18:35.352Z,48.49
2018-08-12T08:21:04.330Z,49.00
2018-08-12T08:23:33.418Z,48.42
2018-08-12T08:26:02.714Z,49.19
2018-08-12T08:28:31.670Z,49.18
2018-08-12T08:31:00.634Z,48.07
2018-08-12T08:33:29.576Z,48.03
2018-08-12T08:35:58.589Z,48.20
2018-08-12T08:38:27.513Z,47.53
2018-08-12T08:40:56.412Z,47.53
2018-08-12T08:43:25.404Z,47.64
2018-08-12T08:45:54.366Z,47.43
2018-08-12T08:48:23.309Z,44.95
2018-08-12T08:50:52.288Z,44.96
2018-08-12T08:53:21.310Z,44.09
2018-08-12T08:55:50.472Z,44.32
2018-08-12T08:58:19.206Z,44.29
2018-08-12T09:00:48.239Z,44.34
2018-08-12T09:03:17.152Z,43.66
2018-08-12T09:05:46.088Z,43.54
2018-08-12T09:08:15.212Z,43.85
2018-08-12T09:10:44.029Z,43.78
2018-08-12T09:13:12.950Z,44.12
2018-08-12T09:15:41.949Z,44.27
2018-08-12T09:18:11.016Z,45.25
2018-08-12T09:20:39.977Z,44.43
2018-08-12T09:23:10.940Z,43.46
2018-08-12T09:25:39.914Z,43.35
2018-08-12T09:28:08.890Z,43.71
2018-08-12T09:30:37.812Z,44.43
2018-08-12T09:33:06.869Z,43.91
2018-08-12T09:35:35.801Z,44.45
2018-08-12T09:38:04.759Z,44.46
2018-08-12T09:40:33.830Z,44.98
2018-08-12T09:43:02.851Z,45.11
2018-08-12T09:45:31.877Z,44.82
2018-08-12T09:48:00.829Z,44.54
2018-08-12T09:50:29.817Z,44.28
2018-08-12T09:52:58.850Z,45.33
2018-08-12T09:55:27.927Z,45.20
2018-08-12T09:57:56.900Z,45.13
2018-08-12T10:00:27.400Z,44.29
2018-08-12T10:02:57.373Z,45.17
2018-08-12T10:05:26.436Z,45.93
2018-08-12T10:07:55.511Z,44.22
2018-08-12T10:10:25.168Z,44.36
2018-08-12T10:12:54.419Z,44.81
2018-08-12T10:15:23.363Z,44.26
2018-08-12T10:17:54.975Z,44.25
2018-08-12T10:20:23.992Z,43.71
2018-08-12T10:22:52.957Z,43.36
2018-08-12T10:25:21.908Z,43.29
2018-08-12T10:27:56.362Z,44.24
2018-08-12T10:30:30.894Z,43.35
2018-08-12T10:32:59.856Z,42.58
2018-08-12T10:35:28.795Z,43.13
2018-08-12T10:37:57.804Z,42.39
2018-08-12T10:40:26.725Z,42.67
2018-08-12T10:42:55.821Z,42.27
2018-08-12T10:45:24.852Z,41.96
2018-08-12T10:47:53.788Z,42.17
2018-08-12T10:50:22.735Z,42.56
2018-08-12T10:52:51.680Z,42.71
2018-08-12T10:55:22.289Z,41.70
2018-08-12T10:57:51.358Z,41.26
2018-08-12T11:00:23.336Z,42.50
2018-08-12T11:02:52.674Z,41.12
2018-08-12T11:05:21.713Z,41.18
2018-08-12T11:07:55.971Z,41.28
2018-08-12T11:10:25.287Z,40.42
2018-08-12T11:12:54.260Z,40.69
2018-08-12T11:15:23.297Z,40.88
2018-08-12T11:17:52.262Z,40.68
2018-08-12T11:20:21.198Z,40.34
2018-08-12T11:22:50.160Z,40.14
2018-08-12T11:25:19.181Z,40.05
2018-08-12T11:27:48.134Z,39.89
2018-08-12T11:30:18.128Z,39.81
2018-08-12T11:32:47.111Z,39.70
2018-08-12T11:35:17.149Z,39.45
2018-08-12T11:37:46.527Z,39.79
2018-08-12T11:40:20.915Z,39.71
2018-08-12T11:42:49.905Z,39.60
2018-08-12T11:45:19.764Z,40.64
2018-08-12T11:47:49.381Z,39.90
2018-08-12T11:50:18.863Z,40.07
2018-08-12T11:52:48.092Z,38.64
2018-08-12T11:55:18.807Z,38.08
2018-08-12T11:57:47.843Z,38.42
2018-08-12T12:00:18.841Z,38.22
2018-08-12T12:02:49.106Z,38.64
2018-08-12T12:05:18.163Z,38.97
2018-08-12T12:07:47.187Z,38.80
2018-08-12T12:10:18.360Z,38.27
2018-08-12T12:12:48.385Z,38.27
2018-08-12T12:15:17.643Z,38.09
2018-08-12T12:17:47.019Z,38.37
2018-08-12T12:20:17.180Z,38.90
2018-08-12T12:22:46.858Z,39.29
2018-08-12T12:25:20.189Z,39.79
2018-08-12T12:27:49.154Z,38.74
2018-08-12T12:30:20.000Z,38.71
2018-08-12T12:32:50.526Z,38.36
2018-08-12T12:35:19.564Z,38.22
2018-08-12T12:37:48.675Z,38.78
2018-08-12T12:40:18.825Z,38.66
2018-08-12T12:42:48.513Z,38.30
2018-08-12T12:45:18.048Z,37.81
2018-08-12T12:47:47.176Z,37.93
2018-08-12T12:50:18.838Z,37.64
2018-08-12T12:52:49.034Z,37.62
2018-08-12T12:55:19.120Z,37.48
2018-08-12T12:57:48.208Z,37.86
2018-08-12T13:00:18.861Z,37.95
2018-08-12T13:02:48.403Z,37.13
2018-08-12T13:05:19.115Z,37.74
2018-08-12T13:07:49.405Z,38.10
2018-08-12T13:10:18.866Z,38.13
2018-08-12T13:12:49.315Z,38.01
2018-08-12T13:15:18.486Z,38.13
2018-08-12T13:17:47.744Z,37.63
2018-08-12T13:20:18.248Z,37.94
2018-08-12T13:22:48.118Z,37.33
2018-08-12T13:25:19.220Z,37.05
2018-08-12T13:27:48.501Z,36.53
2018-08-12T13:30:19.534Z,36.96
2018-08-12T13:32:49.164Z,37.25
2018-08-12T13:35:18.189Z,36.83
2018-08-12T13:37:47.140Z,36.15
2018-08-12T13:40:17.329Z,36.71
2018-08-12T13:42:46.695Z,36.86
2018-08-12T13:45:16.026Z,37.27
2018-08-12T13:47:46.620Z,36.09
2018-08-12T13:50:20.875Z,36.05
2018-08-12T13:52:51.369Z,35.78
2018-08-12T13:55:20.972Z,35.63
2018-08-12T13:57:51.220Z,35.39
2018-08-12T14:00:24.503Z,36.28
2018-08-12T14:02:56.552Z,36.07
2018-08-12T14:05:25.563Z,36.00
2018-08-12T14:07:55.455Z,36.51
2018-08-12T14:10:25.061Z,35.69
2018-08-12T14:12:55.532Z,35.86
2018-08-12T14:15:24.879Z,35.58
2018-08-12T14:17:54.328Z,36.64
2018-08-12T14:20:23.332Z,35.53
2018-08-12T14:22:52.282Z,36.08
2018-08-12T14:25:21.265Z,35.84
2018-08-12T14:27:50.319Z,35.25
2018-08-12T14:30:20.951Z,35.85
2018-08-12T14:32:50.220Z,36.73
2018-08-12T14:35:19.503Z,36.93
2018-08-12T14:37:48.637Z,36.82
2018-08-12T14:40:19.341Z,36.70
2018-08-12T14:42:48.270Z,36.48
2018-08-12T14:45:17.388Z,35.25
2018-08-12T14:47:46.726Z,36.25
2018-08-12T14:50:17.872Z,35.58
2018-08-12T14:52:47.084Z,35.01
2018-08-12T14:55:17.701Z,34.84
2018-08-12T14:57:46.948Z,34.81
2018-08-12T15:00:17.527Z,35.59
2018-08-12T15:02:48.306Z,35.66
2018-08-12T15:05:17.805Z,35.94
2018-08-12T15:07:47.311Z,35.60
2018-08-12T15:10:16.636Z,35.55
2018-08-12T15:12:45.927Z,36.37
2018-08-12T15:15:16.548Z,36.01
2018-08-12T15:17:46.217Z,35.89
2018-08-12T15:20:16.376Z,36.42
2018-08-12T15:22:45.387Z,36.01
2018-08-12T15:25:17.039Z,35.69
2018-08-12T15:27:46.755Z,36.19
2018-08-12T15:30:15.781Z,36.25
2018-08-12T15:32:44.786Z,36.38
2018-08-12T15:35:13.747Z,36.01
2018-08-12T15:37:42.771Z,36.33
2018-08-12T15:40:13.814Z,36.54
2018-08-12T15:42:46.371Z,36.88
2018-08-12T15:45:16.935Z,37.01
2018-08-12T15:47:46.619Z,36.73
2018-08-12T15:50:16.146Z,37.54
2018-08-12T15:52:47.456Z,37.50
2018-08-12T15:55:17.113Z,37.60
2018-08-12T15:57:46.380Z,38.16
2018-08-12T16:00:18.011Z,37.26
2018-08-12T16:02:47.199Z,37.10
2018-08-12T16:05:16.540Z,37.77
2018-08-12T16:07:46.691Z,37.99
2018-08-12T16:10:18.906Z,37.95
2018-08-12T16:12:50.139Z,38.20
2018-08-12T16:15:19.201Z,38.17
2018-08-12T16:17:48.265Z,39.37
2018-08-12T16:20:17.669Z,38.94
2018-08-12T16:22:50.047Z,38.67
2018-08-12T16:25:20.411Z,38.95
2018-08-12T16:27:49.382Z,39.06
2018-08-12T16:30:21.947Z,39.00
2018-08-12T16:32:51.371Z,39.47
2018-08-12T16:35:22.152Z,38.33
2018-08-12T16:37:51.089Z,38.21
2018-08-12T16:40:21.159Z,38.72
2018-08-12T16:42:51.539Z,38.58
2018-08-12T16:45:22.289Z,38.98
2018-08-12T16:47:51.691Z,39.19
2018-08-12T16:50:21.101Z,38.77
2018-08-12T16:52:50.454Z,39.25
2018-08-12T16:55:19.846Z,38.96
2018-08-12T16:57:49.073Z,39.21
2018-08-12T17:00:19.924Z,39.54
2018-08-12T17:02:49.592Z,39.74
2018-08-12T17:05:20.871Z,39.60
2018-08-12T17:07:53.311Z,39.02
2018-08-12T17:10:22.374Z,39.94
2018-08-12T17:12:51.725Z,39.28
2018-08-12T17:15:21.941Z,39.52
2018-08-12T17:17:51.202Z,39.85
2018-08-12T17:20:21.605Z,39.97
2018-08-12T17:22:51.893Z,39.27
2018-08-12T17:25:21.281Z,40.03
2018-08-12T17:27:50.493Z,39.62
2018-08-12T17:30:19.912Z,40.41
2018-08-12T17:32:49.740Z,40.69
2018-08-12T17:35:20.033Z,40.49
2018-08-12T17:37:50.456Z,40.33
2018-08-12T17:40:20.657Z,40.62
2018-08-12T17:42:49.673Z,40.32
2018-08-12T17:45:18.739Z,40.37
2018-08-12T17:47:47.740Z,40.10
2018-08-12T17:50:17.821Z,39.96
2018-08-12T17:52:47.196Z,40.66
2018-08-12T17:55:16.770Z,40.34
2018-08-12T17:57:45.726Z,40.78
2018-08-12T18:00:16.525Z,40.51
2018-08-12T18:02:47.731Z,40.52
2018-08-12T18:05:16.741Z,40.87
2018-08-12T18:07:45.811Z,40.48
2018-08-12T18:10:14.771Z,40.33
2018-08-12T18:12:45.442Z,40.95
2018-08-12T18:15:14.405Z,40.87
2018-08-12T18:17:43.413Z,40.83
2018-08-12T18:20:12.410Z,40.71
2018-08-12T18:22:41.397Z,40.46
2018-08-12T18:25:11.748Z,40.80
2018-08-12T18:27:41.131Z,41.21
2018-08-12T18:30:12.316Z,41.05
2018-08-12T18:32:42.416Z,41.67
2018-08-12T18:35:13.527Z,41.12
2018-08-12T18:37:42.711Z,41.08
2018-08-12T18:40:13.113Z,41.65
2018-08-12T18:42:42.053Z,41.44
2018-08-12T18:45:11.133Z,41.62
2018-08-12T18:47:40.130Z,41.84
2018-08-12T18:50:10.911Z,42.03
2018-08-12T18:52:41.297Z,41.87
2018-08-12T18:55:12.115Z,41.95
2018-08-12T18:57:41.464Z,42.16
2018-08-12T19:00:13.302Z,42.03
2018-08-12T19:02:42.322Z,42.28
2018-08-12T19:05:12.719Z,42.30
2018-08-12T19:07:41.695Z,41.90
2018-08-12T19:10:11.640Z,42.03
2018-08-12T19:12:41.834Z,42.67
2018-08-12T19:15:11.703Z,42.48
2018-08-12T19:17:41.241Z,42.52
2018-08-12T19:20:12.168Z,42.29
2018-08-12T19:22:41.379Z,42.52
2018-08-12T19:25:10.670Z,42.36
2018-08-12T19:27:39.691Z,43.69
2018-08-12T19:30:11.132Z,43.71
2018-08-12T19:32:41.737Z,43.92
2018-08-12T19:35:11.896Z,43.98
2018-08-12T19:37:41.500Z,44.15
2018-08-12T19:40:10.513Z,44.06
2018-08-12T19:42:39.883Z,44.71
2018-08-12T19:45:11.044Z,44.27
2018-08-12T19:47:40.098Z,44.62
2018-08-12T19:50:09.420Z,44.63
2018-08-12T19:52:38.416Z,44.72
2018-08-12T19:55:07.832Z,45.48
2018-08-12T19:57:37.186Z,45.17
2018-08-12T20:00:08.018Z,45.51
2018-08-12T20:02:36.864Z,45.98
2018-08-12T20:05:06.092Z,45.94
2018-08-12T20:07:35.218Z,46.05
2018-08-12T20:10:04.610Z,45.88
2018-08-12T20:12:33.570Z,45.77
2018-08-12T20:15:02.797Z,45.63
2018-08-12T20:17:31.801Z,46.15
2018-08-12T20:20:01.246Z,45.90
2018-08-12T20:22:30.185Z,45.62
2018-08-12T20:24:59.400Z,46.23
2018-08-12T20:27:28.478Z,46.61
2018-08-12T20:29:57.571Z,47.06
2018-08-12T20:32:26.531Z,47.32
2018-08-12T20:34:55.926Z,47.43
2018-08-12T20:37:24.872Z,47.34
2018-08-12T20:39:54.125Z,47.56
2018-08-12T20:42:23.108Z,47.78
2018-08-12T20:44:52.323Z,48.01
2018-08-12T20:47:21.443Z,48.18
2018-08-12T20:49:50.564Z,48.06
2018-08-12T20:52:19.618Z,48.70
2018-08-12T21:07:49.073Z,48.75
2018-08-12T21:10:18.119Z,49.44
2018-08-12T21:12:47.092Z,50.36
2018-08-12T21:15:16.079Z,49.30
2018-08-12T21:17:47.276Z,49.42
2018-08-12T21:20:16.254Z,49.95
2018-08-12T21:22:45.318Z,50.23
2018-08-12T21:25:14.286Z,49.90
2018-08-12T21:27:43.225Z,50.69
2018-08-12T21:30:12.329Z,50.98
2018-08-12T21:32:41.275Z,50.51
2018-08-12T21:35:10.361Z,51.66
2018-08-12T21:37:39.315Z,51.38
2018-08-12T21:40:08.349Z,51.60
2018-08-12T21:42:37.310Z,51.18
2018-08-12T21:45:07.807Z,51.50
2018-08-12T21:47:36.965Z,51.04
2018-08-12T21:50:06.167Z,50.98
2018-08-12T21:52:35.115Z,51.27
2018-08-12T21:55:04.073Z,50.87
2018-08-12T21:57:33.022Z,50.43
2018-08-12T22:00:01.975Z,50.61
2018-08-12T22:02:30.998Z,50.87
2018-08-12T22:04:59.912Z,51.01
2018-08-12T22:07:28.829Z,50.17
2018-08-12T22:09:57.803Z,50.40
2018-08-12T22:12:26.795Z,50.16
2018-08-12T22:14:55.727Z,49.94
2018-08-12T22:17:30.269Z,49.83
2018-08-12T22:19:59.271Z,49.92
2018-08-12T22:22:28.199Z,50.46
2018-08-12T22:24:57.586Z,49.88
2018-08-12T22:27:26.784Z,50.90
2018-08-12T22:29:56.119Z,50.59
2018-08-12T22:32:25.062Z,50.78
2018-08-12T22:34:54.055Z,50.16
2018-08-12T22:37:22.933Z,50.63
2018-08-12T22:39:52.143Z,49.53
2018-08-12T22:42:21.010Z,49.21
2018-08-12T22:44:49.890Z,49.73
2018-08-12T22:47:18.801Z,49.40
2018-08-12T22:49:47.748Z,50.13
2018-08-12T22:52:16.738Z,50.05
2018-08-12T22:54:45.660Z,50.25
2018-08-12T22:57:14.601Z,49.96
2018-08-12T22:59:43.574Z,50.40
2018-08-12T23:02:12.587Z,50.74
2018-08-12T23:04:41.487Z,51.65
2018-08-12T23:07:10.433Z,52.16
2018-08-12T23:09:39.329Z,52.82
2018-08-12T23:12:08.243Z,52.69
2018-08-12T23:14:42.865Z,52.60
2018-08-12T23:17:11.831Z,53.75
2018-08-12T23:19:40.799Z,54.08
2018-08-12T23:22:10.225Z,54.23
2018-08-12T23:24:39.096Z,54.68
2018-08-12T23:27:08.516Z,54.67
2018-08-12T23:29:43.081Z,54.93
2018-08-12T23:32:12.033Z,55.33
2018-08-12T23:34:40.939Z,55.31
2018-08-12T23:37:09.879Z,55.44
2018-08-12T23:39:38.769Z,55.50
2018-08-12T23:42:07.688Z,55.60
2018-08-12T23:44:36.578Z,55.87
2018-08-12T23:47:05.448Z,56.38
2018-08-12T23:49:34.384Z,56.33
2018-08-12T23:52:03.404Z,56.48
2018-08-12T23:54:32.363Z,56.73
2018-08-12T23:57:01.322Z,56.87
2018-08-12T23:59:30.267Z,57.76
